Time;durP1;ratioP1;P1;durP2;ratioP2;P2;SDS_P1;SDS_P2;PMS_P1;PMS_P2;Temp;Humidity;BMP_temperature;BMP_pressure;BME280_temperature;BME280_humidity;BME280_pressure;Samples;Min_cycle;Max_cycle;Signal;HPM_P1;HPM_P2
2023/06/13 00:01:22;;;;;;;4.10;3.08;;;;;;;;;;4968783;28;20053;-86
2023/06/13 00:03:49;;;;;;;4.35;2.92;;;;;;;;;;4971382;28;20038;-86
2023/06/13 00:06:15;;;;;;;8.45;3.03;;;;;;;;;;4978213;28;20061;-86
2023/06/13 00:08:42;;;;;;;5.90;3.25;;;;;;;;;;4982522;28;20571;-86
2023/06/13 00:11:08;;;;;;;7.18;3.72;;;;;;;;;;4970693;28;20452;-87
2023/06/13 00:13:34;;;;;;;8.13;3.17;;;;;;;;;;4969168;28;20042;-86
2023/06/13 00:16:00;;;;;;;5.68;3.22;;;17.70;99.90;;;;;;4966165;28;20057;-86
2023/06/13 00:18:29;;;;;;;4.32;3.58;;;17.60;99.90;;;;;;4985027;28;20506;-86
2023/06/13 00:20:55;;;;;;;8.30;3.55;;;17.80;99.90;;;;;;4984087;28;20064;-86
2023/06/13 00:23:22;;;;;;;8.90;3.00;;;17.80;99.90;;;;;;4957350;28;20042;-86
2023/06/13 00:25:47;;;;;;;7.53;3.75;;;17.60;99.90;;;;;;4988553;28;20038;-86
2023/06/13 00:28:13;;;;;;;12.10;3.92;;;17.60;99.90;;;;;;4973707;28;20115;-86
2023/06/13 00:30:39;;;;;;;6.57;4.07;;;;;;;;;;4979151;28;20105;-86
2023/06/13 00:33:05;;;;;;;6.07;3.58;;;;;;;;;;4985705;28;20089;-87
2023/06/13 00:35:32;;;;;;;6.65;3.95;;;17.70;99.90;;;;;;4976730;28;20045;-87
2023/06/13 00:37:58;;;;;;;8.85;3.42;;;;;;;;;;4967071;28;20137;-86
2023/06/13 00:40:24;;;;;;;5.63;3.85;;;;;;;;;;4993771;28;20510;-86
2023/06/13 00:42:55;;;;;;;5.40;3.65;;;17.60;99.90;;;;;;4967385;28;20042;-86
2023/06/13 00:45:23;;;;;;;6.78;3.50;;;17.50;99.90;;;;;;4984049;28;20604;-86
2023/06/13 00:48:07;;;;;;;7.57;4.53;;;17.60;99.90;;;;;;4983782;28;20500;-87
2023/06/13 00:50:34;;;;;;;5.50;4.03;;;17.60;99.90;;;;;;4970768;28;20064;-86
2023/06/13 00:53:10;;;;;;;8.20;3.75;;;17.50;99.90;;;;;;4958786;28;20108;-87
2023/06/13 00:55:37;;;;;;;7.95;4.20;;;17.50;99.90;;;;;;4987167;28;20038;-86
2023/06/13 00:58:06;;;;;;;7.30;3.90;;;17.30;99.90;;;;;;4983628;28;20500;-86
2023/06/13 01:00:36;;;;;;;8.07;3.97;;;17.40;99.90;;;;;;4980484;28;20069;-87
2023/06/13 01:03:06;;;;;;;8.45;4.18;;;;;;;;;;4985190;28;20042;-87
2023/06/13 01:05:32;;;;;;;9.68;4.60;;;;;;;;;;4968723;28;20416;-87
2023/06/13 01:07:59;;;;;;;6.88;4.13;;;17.20;99.90;;;;;;4968797;28;20038;-86
2023/06/13 01:10:29;;;;;;;5.63;3.45;;;17.30;99.90;;;;;;4967517;28;20172;-86
2023/06/13 01:13:00;;;;;;;7.75;4.05;;;17.20;99.90;;;;;;4981102;28;20389;-86
2023/06/13 01:15:32;;;;;;;7.95;4.28;;;17.20;99.90;;;;;;4981904;28;20050;-86
2023/06/13 01:18:01;;;;;;;5.45;3.72;;;17.10;99.90;;;;;;4980526;28;20065;-86
2023/06/13 01:20:28;;;;;;;5.85;3.83;;;17.00;99.90;;;;;;4982417;28;20038;-86
2023/06/13 01:23:06;;;;;;;5.80;3.80;;;17.00;99.90;;;;;;4975998;28;20369;-86
2023/06/13 01:25:57;;;;;;;7.05;4.05;;;17.00;99.90;;;;;;4968627;28;20038;-86
2023/06/13 01:28:24;;;;;;;8.57;4.05;;;;;;;;;;4969589;28;20033;-86
2023/06/13 01:30:51;;;;;;;6.03;3.75;;;17.00;99.90;;;;;;4969141;28;20204;-86
2023/06/13 01:33:18;;;;;;;5.63;4.20;;;17.10;99.90;;;;;;4981778;28;20053;-87
2023/06/13 01:35:45;;;;;;;5.47;3.90;;;17.10;99.90;;;;;;4966083;28;20454;-86
2023/06/13 01:38:11;;;;;;;5.93;3.60;;;;;;;;;;4969114;28;20054;-87
2023/06/13 01:40:37;;;;;;;6.53;3.58;;;;;;;;;;4978623;28;20408;-86
2023/06/13 01:43:03;;;;;;;12.05;4.18;;;;;;;;;;4967538;28;20038;-86
2023/06/13 01:45:29;;;;;;;8.77;4.38;;;;;;;;;;4981583;28;20471;-86
2023/06/13 01:48:21;;;;;;;5.93;3.80;;;16.90;99.90;;;;;;4963953;28;20038;-86
2023/06/13 01:50:47;;;;;;;7.70;3.58;;;;;;;;;;4949890;28;20046;-86
2023/06/13 01:53:25;;;;;;;8.90;4.78;;;16.60;99.90;;;;;;4978840;28;20129;-87
2023/06/13 01:55:58;;;;;;;9.50;4.20;;;16.60;99.90;;;;;;4992957;28;20158;-86
2023/06/13 01:58:33;;;;;;;10.35;4.75;;;16.70;99.90;;;;;;4963085;28;20558;-86
2023/06/13 02:01:00;;;;;;;;;;;16.60;99.90;;;;;;4984440;28;20048;-87
2023/06/13 02:03:27;;;;;;;5.38;3.67;;;;;;;;;;4983041;28;19980;-87
2023/06/13 02:05:52;;;;;;;9.60;4.50;;;16.50;99.90;;;;;;4970437;28;20508;-86
2023/06/13 02:08:18;;;;;;;7.35;3.42;;;;;;;;;;4978464;28;20077;-86
2023/06/13 02:10:45;;;;;;;6.22;3.80;;;16.60;99.90;;;;;;4964646;28;20073;-86
2023/06/13 02:13:11;;;;;;;8.05;4.13;;;;;;;;;;4968594;28;20042;-86
2023/06/13 02:15:37;;;;;;;6.50;4.05;;;;;;;;;;4969380;28;20119;-87
2023/06/13 02:18:03;;;;;;;7.55;3.97;;;;;;;;;;4982482;28;20522;-86
2023/06/13 02:20:29;;;;;;;8.63;3.88;;;;;;;;;;4983165;28;20038;-86
2023/06/13 02:22:56;;;;;;;7.32;4.03;;;16.50;99.90;;;;;;4979130;28;20034;-85
2023/06/13 02:25:22;;;;;;;7.55;3.95;;;;;;;;;;4967619;28;20048;-86
2023/06/13 02:27:48;;;;;;;10.48;4.93;;;;;;;;;;4970077;28;20125;-86
2023/06/13 02:30:14;;;;;;;6.53;3.97;;;;;;;;;;4968958;28;20125;-87
2023/06/13 02:32:40;;;;;;;12.20;4.40;;;16.30;99.90;;;;;;4968114;28;20038;-86
2023/06/13 02:35:10;;;;;;;7.75;4.10;;;16.30;99.90;;;;;;4972717;28;20471;-86
2023/06/13 02:37:36;;;;;;;7.10;3.97;;;;;;;;;;4963822;28;20050;-86
2023/06/13 02:40:05;;;;;;;7.85;4.15;;;;;;;;;;4962868;28;20052;-86
2023/06/13 02:42:30;;;;;;;8.65;4.18;;;16.20;99.90;;;;;;4985465;28;20034;-86
2023/06/13 02:44:57;;;;;;;7.20;4.35;;;;;;;;;;4985216;28;20056;-87
2023/06/13 02:47:23;;;;;;;6.80;4.20;;;;;;;;;;4984960;28;20080;-86
2023/06/13 02:49:49;;;;;;;8.48;4.15;;;16.10;99.90;;;;;;4986325;28;20100;-86
2023/06/13 02:52:15;;;;;;;8.52;4.05;;;16.20;99.90;;;;;;4973349;28;20514;-86
2023/06/13 02:54:41;;;;;;;5.53;3.92;;;;;;;;;;4983893;28;20564;-86
2023/06/13 02:57:09;;;;;;;6.38;4.40;;;;;;;;;;4989244;28;20518;-86
2023/06/13 02:59:35;;;;;;;8.48;4.82;;;;;;;;;;4972928;28;20119;-86
2023/06/13 03:02:01;;;;;;;9.60;4.97;;;;;;;;;;4986519;28;20076;-86
2023/06/13 03:04:28;;;;;;;6.97;4.10;;;;;;;;;;4981244;28;20089;-88
2023/06/13 03:06:54;;;;;;;6.45;4.13;;;16.00;99.90;;;;;;4974364;28;20410;-86
2023/06/13 03:09:20;;;;;;;7.82;4.65;;;;;;;;;;4974837;28;20042;-86
2023/06/13 03:11:46;;;;;;;6.43;4.15;;;16.00;99.90;;;;;;4970375;28;20184;-86
2023/06/13 03:14:12;;;;;;;9.07;4.30;;;;;;;;;;4986469;28;20053;-86
2023/06/13 03:16:38;;;;;;;8.80;3.90;;;;;;;;;;4969295;28;20042;-86
2023/06/13 03:19:04;;;;;;;9.13;4.10;;;15.90;99.90;;;;;;4973081;28;20099;-86
2023/06/13 03:21:30;;;;;;;7.03;4.75;;;;;;;;;;4970969;28;20121;-87
2023/06/13 03:23:56;;;;;;;9.65;4.28;;;15.80;99.90;;;;;;4972315;28;20038;-86
2023/06/13 03:26:22;;;;;;;8.60;4.57;;;;;;;;;;4987728;28;20095;-86
2023/06/13 03:28:48;;;;;;;7.75;4.05;;;15.70;99.90;;;;;;4983840;28;20415;-86
2023/06/13 03:31:14;;;;;;;8.27;4.18;;;;;;;;;;4967810;28;20050;-86
2023/06/13 03:33:41;;;;;;;7.68;4.07;;;;;;;;;;4971877;28;20050;-89
2023/06/13 03:36:07;;;;;;;5.80;4.03;;;;;;;;;;4973588;28;20045;-86
2023/06/13 03:38:33;;;;;;;8.93;3.78;;;;;;;;;;4987931;28;20769;-86
2023/06/13 03:40:58;;;;;;;9.65;4.68;;;15.70;99.90;;;;;;4968767;28;20041;-86
2023/06/13 03:43:28;;;;;;;8.50;4.38;;;15.50;99.90;;;;;;4970683;28;20042;-86
2023/06/13 03:45:54;;;;;;;6.53;4.22;;;;;;;;;;5003604;28;20045;-86
2023/06/13 03:48:20;;;;;;;10.38;4.07;;;;;;;;;;4988999;28;20038;-86
2023/06/13 03:50:46;;;;;;;7.63;4.57;;;15.50;99.90;;;;;;4987348;28;20507;-86
2023/06/13 03:53:11;;;;;;;8.80;4.20;;;15.60;99.90;;;;;;4969123;28;20042;-86
2023/06/13 03:55:37;;;;;;;7.28;4.78;;;15.60;99.90;;;;;;4983588;28;20042;-86
2023/06/13 03:58:04;;;;;;;11.70;3.83;;;;;;;;;;4968071;28;20042;-86
2023/06/13 04:00:33;;;;;;;7.10;3.70;;;15.80;99.90;;;;;;4986094;28;20492;-86
2023/06/13 04:03:02;;;;;;;8.30;4.38;;;;;;;;;;4970963;28;20041;-86
2023/06/13 04:05:28;;;;;;;9.63;4.30;;;15.50;99.90;;;;;;4984528;28;20788;-86
2023/06/13 04:07:54;;;;;;;8.38;4.25;;;;;;;;;;4969435;28;20038;-86
2023/06/13 04:10:20;;;;;;;7.95;4.20;;;15.70;99.90;;;;;;4972906;28;20049;-86
2023/06/13 04:12:47;;;;;;;8.40;4.18;;;;;;;;;;4965422;28;20049;-86
2023/06/13 04:15:13;;;;;;;9.75;4.22;;;;;;;;;;4985662;28;20120;-85
2023/06/13 04:17:39;;;;;;;7.20;3.95;;;;;;;;;;4970089;28;20053;-86
2023/06/13 04:20:05;;;;;;;7.28;4.25;;;15.70;99.90;;;;;;4968193;28;20053;-86
2023/06/13 04:22:31;;;;;;;8.52;4.43;;;;;;;;;;4984386;28;20035;-86
2023/06/13 04:24:58;;;;;;;5.85;3.65;;;15.70;99.90;;;;;;4983517;28;20145;-86
2023/06/13 04:27:28;;;;;;;7.53;3.70;;;;;;;;;;4966331;28;20053;-86
2023/06/13 04:29:54;;;;;;;8.10;4.05;;;;;;;;;;4984657;28;20065;-86
2023/06/13 04:32:23;;;;;;;8.57;4.35;;;;;;;;;;4967470;28;20047;-86
2023/06/13 04:34:54;;;;;;;6.85;3.65;;;;;;;;;;4970575;28;20042;-86
2023/06/13 04:37:25;;;;;;;6.10;3.95;;;;;;;;;;4979978;28;20058;-86
2023/06/13 04:39:51;;;;;;;8.23;4.43;;;;;;;;;;4967396;28;20050;-86
2023/06/13 04:42:24;;;;;;;8.75;4.30;;;16.20;99.90;;;;;;4980084;28;20042;-86
2023/06/13 04:44:56;;;;;;;8.05;3.80;;;16.30;99.90;;;;;;4985210;28;20046;-86
2023/06/13 04:47:26;;;;;;;7.97;4.07;;;16.30;99.90;;;;;;4971054;28;20049;-86
2023/06/13 04:49:58;;;;;;;6.45;3.67;;;;;;;;;;4984624;28;20038;-86
2023/06/13 04:52:29;;;;;;;6.70;4.10;;;16.50;99.90;;;;;;4972081;28;20081;-87
2023/06/13 04:54:55;;;;;;;10.10;4.03;;;;;;;;;;4984227;28;20042;-86
2023/06/13 04:57:21;;;;;;;6.55;3.55;;;17.10;99.90;;;;;;4986547;28;20050;-86
2023/06/13 04:59:47;;;;;;;5.57;3.90;;;;;;;;;;4970183;28;20034;-86
2023/06/13 05:02:14;;;;;;;11.85;3.90;;;17.60;99.90;;;;;;4971534;28;20418;-86
2023/06/13 05:04:40;;;;;;;7.30;3.65;;;;;;;;;;4985790;28;20038;-86
2023/06/13 05:07:07;;;;;;;11.95;3.78;;;;;;;;;;4988311;28;20045;-88
2023/06/13 05:09:33;;;;;;;7.50;3.30;;;18.90;99.90;;;;;;4983802;28;20119;-86
2023/06/13 05:11:58;;;;;;;10.52;3.72;;;19.20;99.90;;;;;;4973445;28;20034;-85
2023/06/13 05:14:24;;;;;;;6.47;3.25;;;19.70;99.90;;;;;;4977031;28;20461;-86
2023/06/13 05:16:53;;;;;;;7.72;3.35;;;;;;;;;;4970081;28;20038;-87
2023/06/13 05:19:19;;;;;;;7.07;3.70;;;19.90;99.90;;;;;;4971995;28;20045;-86
2023/06/13 05:21:46;;;;;;;4.60;2.75;;;19.80;99.90;;;;;;4983322;28;20041;-86
2023/06/13 05:24:13;;;;;;;6.68;3.65;;;19.80;99.90;;;;;;4971816;28;20042;-86
2023/06/13 05:26:38;;;;;;;6.75;3.17;;;20.10;99.90;;;;;;4969463;28;20034;-86
2023/06/13 05:29:05;;;;;;;8.85;4.20;;;20.20;99.90;;;;;;4986285;28;20393;-88
2023/06/13 05:31:33;;;;;;;5.93;3.10;;;21.40;99.90;;;;;;4959396;28;20539;-87
2023/06/13 05:34:00;;;;;;;12.05;3.85;;;22.00;99.90;;;;;;4983701;28;20496;-87
2023/06/13 05:36:26;;;;;;;12.65;3.72;;;22.00;99.90;;;;;;4968958;28;20504;-87
2023/06/13 05:38:54;;;;;;;4.57;3.00;;;21.20;99.90;;;;;;4968468;28;20095;-86
2023/06/13 05:41:19;;;;;;;6.20;3.13;;;23.20;99.90;;;;;;4970297;28;20038;-87
2023/06/13 05:43:45;;;;;;;8.73;3.85;;;23.30;99.90;;;;;;4986314;28;20046;-87
2023/06/13 05:46:10;;;;;;;4.82;3.17;;;22.30;99.90;;;;;;4982427;28;20046;-88
2023/06/13 05:48:36;;;;;;;6.22;3.13;;;22.50;99.90;;;;;;4985750;28;20034;-86
2023/06/13 05:51:03;;;;;;;11.43;3.03;;;23.20;99.90;;;;;;4985623;28;20046;-87
2023/06/13 05:53:30;;;;;;;6.60;2.78;;;23.20;99.90;;;;;;4982783;28;20045;-87
2023/06/13 05:55:55;;;;;;;5.82;3.15;;;25.50;99.90;;;;;;4979587;28;20049;-87
2023/06/13 05:58:21;;;;;;;6.78;2.92;;;26.20;99.90;;;;;;4960559;28;20050;-87
2023/06/13 06:00:47;;;;;;;9.52;2.85;;;23.40;99.30;;;;;;4979834;28;20042;-87
2023/06/13 06:03:13;;;;;;;4.70;2.67;;;23.70;99.30;;;;;;4984755;28;20041;-88
2023/06/13 06:05:39;;;;;;;5.13;2.65;;;26.20;99.40;;;;;;4963666;28;20038;-86
2023/06/13 06:08:05;;;;;;;6.63;2.72;;;24.40;98.20;;;;;;4983475;28;20046;-88
2023/06/13 06:10:30;;;;;;;4.60;2.47;;;26.60;98.80;;;;;;4974148;28;20404;-87
2023/06/13 06:12:56;;;;;;;3.55;2.25;;;26.40;98.90;;;;;;4972091;28;20041;-87
2023/06/13 06:15:22;;;;;;;43.70;6.38;;;25.60;98.10;;;;;;5006022;28;20125;-87
2023/06/13 06:17:47;;;;;;;5.50;2.70;;;25.40;98.10;;;;;;4984235;28;20519;-88
2023/06/13 06:20:13;;;;;;;5.82;2.85;;;26.60;98.10;;;;;;5000428;28;20081;-87
2023/06/13 06:22:39;;;;;;;6.38;3.20;;;27.20;98.10;;;;;;4969790;28;20038;-88
2023/06/13 06:25:05;;;;;;;4.50;2.58;;;25.60;97.40;;;;;;4987085;28;20499;-88
2023/06/13 06:27:31;;;;;;;6.00;2.50;;;25.80;97.30;;;;;;4964857;28;20049;-88
2023/06/13 06:29:56;;;;;;;7.80;2.55;;;25.80;96.80;;;;;;4989411;28;20034;-89
2023/06/13 06:32:22;;;;;;;5.38;2.67;;;28.20;97.60;;;;;;4966866;28;20038;-87
2023/06/13 06:34:47;;;;;;;6.50;2.72;;;26.30;96.70;;;;;;4971090;28;20042;-88
2023/06/13 06:37:13;;;;;;;8.27;2.50;;;27.20;97.60;;;;;;4967955;28;20054;-87
2023/06/13 06:39:38;;;;;;;6.70;2.38;;;26.50;98.20;;;;;;4964527;28;20065;-87
2023/06/13 06:42:04;;;;;;;5.25;3.28;;;24.00;98.40;;;;;;4972927;28;20121;-89
2023/06/13 06:44:30;;;;;;;6.70;2.88;;;23.50;98.80;;;;;;4973695;28;20476;-89
2023/06/13 06:46:56;;;;;;;6.47;2.40;;;22.50;99.90;;;;;;4973767;28;20042;-91
2023/06/13 06:49:21;;;;;;;6.88;3.10;;;22.30;99.90;;;;;;4989497;28;20220;-89
2023/06/13 06:51:47;;;;;;;8.40;3.10;;;22.10;99.90;;;;;;4963302;28;20461;-89
2023/06/13 06:54:13;;;;;;;5.80;2.97;;;;;;;;;;4973499;28;20042;-90
2023/06/13 06:56:39;;;;;;;7.53;3.35;;;;;;;;;;4991303;28;20046;-89
2023/06/13 06:59:05;;;;;;;4.85;3.45;;;;;;;;;;4987411;28;20035;-89
2023/06/13 07:01:31;;;;;;;8.77;3.67;;;;;;;;;;4971843;28;20038;-90
2023/06/13 07:03:58;;;;;;;7.00;2.78;;;;;;;;;;4975435;28;20042;-89
2023/06/13 07:06:24;;;;;;;8.23;2.85;;;;;;;;;;4975760;28;20105;-88
2023/06/13 07:08:50;;;;;;;7.68;3.33;;;;;;;;;;4975720;28;20455;-92
2023/06/13 07:11:16;;;;;;;7.57;3.28;;;;;;;;;;4978615;28;20070;-89
2023/06/13 07:13:41;;;;;;;7.03;3.08;;;21.40;99.90;;;;;;4975927;28;20042;-88
2023/06/13 07:16:07;;;;;;;7.13;2.85;;;;;;;;;;4990521;28;20049;-88
2023/06/13 07:18:33;;;;;;;8.77;3.60;;;;;;;;;;4971716;28;20053;-89
2023/06/13 07:20:59;;;;;;;6.63;2.97;;;21.10;99.90;;;;;;4967026;28;20042;-89
2023/06/13 07:23:25;;;;;;;6.25;2.97;;;;;;;;;;4953921;28;20046;-91
2023/06/13 07:25:51;;;;;;;6.68;3.10;;;;;;;;;;4969892;28;20045;-89
2023/06/13 07:28:17;;;;;;;3.88;2.55;;;;;;;;;;4972728;28;20046;-89
2023/06/13 07:30:43;;;;;;;6.85;2.97;;;;;;;;;;4953806;28;20062;-88
2023/06/13 07:33:09;;;;;;;6.18;3.10;;;;;;;;;;4968680;28;20571;-91
2023/06/13 07:35:35;;;;;;;6.93;2.90;;;;;;;;;;4984793;28;20054;-88
2023/06/13 07:38:01;;;;;;;7.20;2.97;;;;;;;;;;4980714;28;20061;-89
2023/06/13 07:40:27;;;;;;;5.93;2.78;;;;;;;;;;4978472;28;20096;-88
2023/06/13 07:42:54;;;;;;;4.82;3.15;;;;;;;;;;4958737;28;20460;-88
2023/06/13 07:45:20;;;;;;;6.07;3.40;;;;;;;;;;4961231;28;20046;-90
2023/06/13 07:47:46;;;;;;;5.47;2.88;;;;;;;;;;4967791;28;20054;-91
2023/06/13 07:50:12;;;;;;;4.50;2.47;;;;;;;;;;4957166;28;20080;-87
2023/06/13 07:52:38;;;;;;;8.02;2.90;;;;;;;;;;4961413;28;20492;-89
2023/06/13 07:55:04;;;;;;;4.57;2.30;;;21.80;99.90;;;;;;4953220;28;20085;-90
2023/06/13 07:57:30;;;;;;;6.70;2.90;;;;;;;;;;4951574;28;20038;-92
2023/06/13 07:59:57;;;;;;;5.82;2.65;;;;;;;;;;4969728;28;20040;-84
2023/06/13 08:02:23;;;;;;;5.55;2.67;;;22.10;99.90;;;;;;4987853;28;20046;-84
2023/06/13 08:04:49;;;;;;;5.55;2.70;;;22.10;99.90;;;;;;4967679;28;20137;-84
2023/06/13 08:07:15;;;;;;;9.30;2.95;;;22.20;99.90;;;;;;4970575;28;20559;-87
2023/06/13 08:09:40;;;;;;;6.68;2.85;;;22.40;99.90;;;;;;4954711;28;20157;-89
2023/06/13 08:12:07;;;;;;;6.18;2.42;;;22.40;99.90;;;;;;4961469;28;20045;-87
2023/06/13 08:14:32;;;;;;;7.70;2.63;;;22.30;99.90;;;;;;4955646;28;20163;-89
2023/06/13 08:16:58;;;;;;;7.15;2.38;;;22.60;99.90;;;;;;4953441;28;20100;-90
2023/06/13 08:19:23;;;;;;;5.43;2.53;;;22.60;99.90;;;;;;4954228;28;20031;-84
2023/06/13 08:21:49;;;;;;;6.63;2.17;;;22.80;99.90;;;;;;4968549;28;20456;-85
2023/06/13 08:24:14;;;;;;;4.72;2.15;;;22.80;99.90;;;;;;4960184;28;20522;-85
2023/06/13 08:26:40;;;;;;;8.30;2.38;;;;;;;;;;4966806;28;20049;-85
2023/06/13 08:29:06;;;;;;;5.85;2.45;;;22.80;99.90;;;;;;4945514;28;20132;-87
2023/06/13 08:31:32;;;;;;;4.00;1.90;;;22.90;99.90;;;;;;4960806;28;20408;-86
2023/06/13 08:33:59;;;;;;;6.80;2.22;;;23.00;99.90;;;;;;4971187;28;20122;-85
2023/06/13 08:36:25;;;;;;;7.30;2.28;;;23.00;99.90;;;;;;4955070;28;20042;-84
2023/06/13 08:38:57;;;;;;;4.35;2.33;;;23.00;99.90;;;;;;4986454;28;20602;-85
2023/06/13 08:41:25;;;;;;;4.95;1.77;;;23.20;99.90;;;;;;4973910;28;20395;-84
2023/06/13 08:43:53;;;;;;;4.10;2.08;;;23.00;99.90;;;;;;4990255;28;20037;-84
2023/06/13 08:46:18;;;;;;;9.25;2.05;;;23.30;99.90;;;;;;4989603;28;20057;-84
2023/06/13 08:48:44;;;;;;;6.07;2.22;;;23.30;99.90;;;;;;4971668;28;20042;-84
2023/06/13 08:51:22;;;;;;;7.72;2.47;;;23.20;99.90;;;;;;5117819;27;20440;-67
2023/06/13 08:53:51;;;;;;;5.18;1.80;;;23.30;99.90;;;;;;5109931;28;20085;-67
2023/06/13 08:56:18;;;;;;;6.50;2.13;;;23.40;99.90;;;;;;5108395;28;20130;-67
2023/06/13 08:58:45;;;;;;;6.03;1.80;;;23.40;99.90;;;;;;5104030;28;20698;-67
2023/06/13 09:01:12;;;;;;;3.42;2.50;;;23.40;99.90;;;;;;5108638;28;20055;-67
2023/06/13 09:03:38;;;;;;;3.72;1.73;;;23.50;99.40;;;;;;5100399;28;20051;-66
2023/06/13 09:06:04;;;;;;;5.30;2.60;;;23.90;99.90;;;;;;5105437;28;20516;-66
2023/06/13 09:08:31;;;;;;;4.55;1.77;;;23.60;99.00;;;;;;5148834;27;20040;-66
2023/06/13 09:10:59;;;;;;;4.80;1.85;;;24.40;99.30;;;;;;5110354;28;20116;-66
2023/06/13 09:13:25;;;;;;;6.40;2.05;;;23.90;98.90;;;;;;5117421;28;20039;-66
2023/06/13 09:15:51;;;;;;;5.30;2.00;;;23.70;98.10;;;;;;5107844;28;20036;-66
2023/06/13 09:18:18;;;;;;;6.55;2.22;;;24.00;97.40;;;;;;5111603;28;20599;-66
2023/06/13 09:20:44;;;;;;;4.47;2.08;;;24.00;97.70;;;;;;5107537;28;20047;-72
2023/06/13 09:23:13;;;;;;;4.57;2.05;;;25.20;98.00;;;;;;5113427;28;20044;-66
2023/06/13 09:25:39;;;;;;;5.80;2.15;;;25.30;98.20;;;;;;5107340;28;20055;-66
2023/06/13 09:28:39;;;;;;;4.45;3.20;;;23.90;97.30;;;;;;5113277;28;20135;-66
2023/06/13 09:31:07;;;;;;;3.78;1.80;;;24.10;96.60;;;;;;5094988;28;20055;-66
2023/06/13 09:33:33;;;;;;;8.48;2.22;;;23.90;97.90;;;;;;5117782;27;20485;-67
2023/06/13 09:35:58;;;;;;;4.40;1.90;;;23.90;97.60;;;;;;5111904;28;20046;-67
2023/06/13 09:38:25;;;;;;;4.95;2.20;;;24.30;97.40;;;;;;5137531;27;20806;-67
2023/06/13 09:40:54;;;;;;;4.80;2.20;;;24.20;97.30;;;;;;5112909;28;20046;-67
2023/06/13 09:43:20;;;;;;;5.72;2.13;;;24.20;97.60;;;;;;5105565;27;20506;-66
2023/06/13 09:45:47;;;;;;;5.40;1.90;;;24.40;97.60;;;;;;5098577;28;20037;-67
2023/06/13 09:48:13;;;;;;;6.95;1.95;;;24.40;97.80;;;;;;5097887;27;20421;-67
2023/06/13 09:50:40;;;;;;;5.28;2.08;;;24.40;97.70;;;;;;5107220;27;20047;-67
2023/06/13 09:53:10;;;;;;;5.97;2.13;;;24.60;98.00;;;;;;5106931;27;20101;-67
2023/06/13 09:55:36;;;;;;;5.38;2.20;;;24.70;97.50;;;;;;5108151;28;20122;-66
2023/06/13 09:58:02;;;;;;;6.32;2.47;;;24.40;97.30;;;;;;5103719;28;20032;-67
2023/06/13 10:00:28;;;;;;;4.70;2.00;;;24.50;97.50;;;;;;5102142;27;20396;-67
2023/06/13 10:02:55;;;;;;;3.42;2.05;;;24.70;97.50;;;;;;5088902;28;20032;-66
2023/06/13 10:05:21;;;;;;;7.85;1.90;;;26.00;97.80;;;;;;5096219;28;20148;-66
2023/06/13 10:07:47;;;;;;;4.38;2.13;;;24.90;97.80;;;;;;5095862;28;20125;-66
2023/06/13 10:10:13;;;;;;;4.18;2.28;;;25.00;97.40;;;;;;5093225;28;20058;-67
2023/06/13 10:12:45;;;;;;;5.25;2.15;;;24.90;98.10;;;;;;5094516;28;20090;-67
2023/06/13 10:15:14;;;;;;;4.43;2.20;;;25.10;97.90;;;;;;5120696;27;20044;-67
2023/06/13 10:17:42;;;;;;;7.93;2.22;;;25.20;97.90;;;;;;5119119;27;20044;-67
2023/06/13 10:20:14;;;;;;;3.42;2.13;;;25.20;97.80;;;;;;5090367;28;20084;-67
2023/06/13 10:22:40;;;;;;;4.72;2.53;;;25.30;97.90;;;;;;5101919;28;20101;-67
2023/06/13 10:25:08;;;;;;;5.03;2.58;;;25.10;97.80;;;;;;5090775;28;20081;-67
2023/06/13 10:27:40;;;;;;;3.50;2.13;;;25.40;98.10;;;;;;5097301;28;20036;-67
2023/06/13 10:30:15;;;;;;;4.80;2.00;;;25.20;98.00;;;;;;5094968;28;20052;-67
2023/06/13 10:32:59;;;;;;;;;;;25.30;97.20;;;;;;5096355;28;20046;-67
2023/06/13 10:35:37;;;;;;;5.53;2.83;;;25.30;96.60;;;;;;5091670;28;19919;-66
2023/06/13 10:38:15;;;;;;;5.00;2.03;;;23.50;96.90;;;;;;5092256;28;20036;-66
2023/06/13 10:41:20;;;;;;;3.50;2.20;;;25.40;97.60;;;;;;5075780;28;20044;-66
2023/06/13 10:43:52;;;;;;;5.07;2.40;;;25.40;97.50;;;;;;5094203;28;20103;-66
2023/06/13 10:46:18;;;;;;;4.38;1.95;;;25.50;97.50;;;;;;5086810;28;20079;-66
2023/06/13 10:48:49;;;;;;;6.78;2.35;;;25.40;97.50;;;;;;5096085;28;20124;-66
2023/06/13 10:51:29;;;;;;;3.95;2.00;;;26.50;97.90;;;;;;5056202;28;20098;-66
2023/06/13 10:54:03;;;;;;;6.70;2.50;;;25.60;97.10;;;;;;5099281;27;20036;-66
2023/06/13 10:56:34;;;;;;;4.47;1.98;;;27.10;98.70;;;;;;5093349;28;20226;-66
2023/06/13 10:59:04;;;;;;;6.53;2.95;;;25.50;97.20;;;;;;5095895;28;20091;-66
2023/06/13 11:01:31;;;;;;;5.00;2.58;;;25.90;97.40;;;;;;5097107;28;20443;-66
2023/06/13 11:04:07;;;;;;;6.22;2.47;;;25.70;97.70;;;;;;5099732;28;20538;-66
2023/06/13 11:06:32;;;;;;;6.80;2.55;;;25.70;97.50;;;;;;5127300;27;20129;-66
2023/06/13 11:09:27;;;;;;;2.70;2.15;;;25.60;97.30;;;;;;5129491;27;20610;-67
2023/06/13 11:12:03;;;;;;;7.18;3.40;;;25.70;97.00;;;;;;5071681;28;20051;-66
2023/06/13 11:14:33;;;;;;;6.32;2.63;;;25.70;97.70;;;;;;5111836;27;20373;-66
2023/06/13 11:16:59;;;;;;;4.72;2.20;;;25.80;97.60;;;;;;5102888;28;20039;-66
2023/06/13 11:19:27;;;;;;;2.75;1.60;;;27.50;98.10;;;;;;5101845;28;20417;-66
2023/06/13 11:21:59;;;;;;;4.50;1.98;;;25.60;97.50;;;;;;5097505;28;20039;-66
2023/06/13 11:24:27;;;;;;;6.25;2.47;;;27.00;98.10;;;;;;5093955;28;20101;-66
2023/06/13 11:26:55;;;;;;;6.47;2.35;;;26.60;98.10;;;;;;5094616;28;20040;-66
2023/06/13 11:29:21;;;;;;;6.10;2.90;;;25.60;97.30;;;;;;5103417;28;20493;-66
2023/06/13 11:31:51;;;;;;;5.72;2.00;;;25.80;97.10;;;;;;5091362;28;20032;-66
2023/06/13 11:34:20;;;;;;;4.90;1.95;;;27.50;97.50;;;;;;5090360;28;20040;-66
2023/06/13 11:36:46;;;;;;;8.55;2.67;;;25.80;97.10;;;;;;5128574;27;20095;-66
2023/06/13 11:39:37;;;;;;;5.28;2.72;;;26.00;96.80;;;;;;5102737;28;20044;-66
2023/06/13 11:42:03;;;;;;;2.88;1.95;;;25.80;97.10;;;;;;5093560;28;20553;-65
2023/06/13 11:44:28;;;;;;;7.15;2.28;;;26.10;96.90;;;;;;5104146;28;20039;-66
2023/06/13 11:46:55;;;;;;;5.20;2.10;;;25.80;97.10;;;;;;5088145;28;20088;-66
2023/06/13 11:49:21;;;;;;;6.82;2.08;;;26.10;97.00;;;;;;5113684;27;20055;-67
2023/06/13 11:51:46;;;;;;;6.78;2.17;;;25.90;97.10;;;;;;5088224;28;20052;-66
2023/06/13 11:54:12;;;;;;;3.80;2.38;;;26.00;96.90;;;;;;5081547;28;20086;-66
2023/06/13 11:56:50;;;;;;;5.32;2.22;;;26.20;97.30;;;;;;5130826;27;20093;-66
2023/06/13 11:59:17;;;;;;;3.63;2.15;;;26.00;97.90;;;;;;5091547;28;20040;-66
2023/06/13 12:01:48;;;;;;;6.22;2.28;;;27.60;98.00;;;;;;5096424;28;20111;-66
2023/06/13 12:04:14;;;;;;;7.05;2.22;;;26.10;96.80;;;;;;5095126;28;20089;-66
2023/06/13 12:06:40;;;;;;;2.92;1.90;;;25.90;97.10;;;;;;5086635;28;20050;-66
2023/06/13 12:09:06;;;;;;;5.18;2.65;;;26.10;97.40;;;;;;5095269;28;20043;-66
2023/06/13 12:11:32;;;;;;;3.75;1.83;;;25.80;97.30;;;;;;5095788;28;20055;-66
2023/06/13 12:14:00;;;;;;;4.75;1.77;;;26.20;97.70;;;;;;5093896;28;20501;-66
2023/06/13 12:16:32;;;;;;;6.70;1.63;;;26.10;97.60;;;;;;5128496;27;20052;-66
2023/06/13 12:18:59;;;;;;;3.97;2.05;;;27.90;98.30;;;;;;5093797;28;20040;-66
2023/06/13 12:21:28;;;;;;;5.80;1.88;;;25.90;97.60;;;;;;5096031;28;20068;-66
2023/06/13 12:23:58;;;;;;;4.25;1.88;;;26.00;97.60;;;;;;5100732;28;20075;-66
2023/06/13 12:26:26;;;;;;;4.82;2.15;;;26.30;97.00;;;;;;5099019;28;20043;-66
2023/06/13 12:28:55;;;;;;;7.70;2.65;;;26.00;97.50;;;;;;5087920;28;20497;-66
2023/06/13 12:31:32;;;;;;;6.60;2.33;;;26.10;97.20;;;;;;5093029;28;20589;-66
2023/06/13 12:34:33;;;;;;;5.22;2.47;;;26.10;97.70;;;;;;5092727;28;20040;-66
2023/06/13 12:37:04;;;;;;;8.57;2.08;;;26.30;96.00;;;;;;5083930;28;20499;-66
2023/06/13 12:39:30;;;;;;;5.22;2.03;;;26.10;97.10;;;;;;5094797;28;20052;-66
2023/06/13 12:42:02;;;;;;;7.97;2.38;;;26.00;97.10;;;;;;5095229;28;20040;-66
2023/06/13 12:44:33;;;;;;;5.53;2.17;;;25.90;97.40;;;;;;5116804;27;20047;-66
2023/06/13 12:47:02;;;;;;;4.10;1.80;;;26.20;96.70;;;;;;5081862;28;20055;-66
2023/06/13 12:49:37;;;;;;;6.10;2.03;;;26.30;97.50;;;;;;5094884;28;20532;-68
2023/06/13 12:52:14;;;;;;;4.38;2.22;;;25.90;97.50;;;;;;5095897;28;20481;-66
2023/06/13 12:54:39;;;;;;;5.38;2.20;;;26.30;97.60;;;;;;5097756;28;20080;-66
2023/06/13 12:57:11;;;;;;;6.45;2.05;;;27.50;97.70;;;;;;5097274;28;20825;-66
2023/06/13 12:59:41;;;;;;;5.85;2.38;;;26.30;97.10;;;;;;5092161;28;20040;-66
2023/06/13 13:02:08;;;;;;;5.38;1.88;;;26.50;97.10;;;;;;5122276;27;20044;-66
2023/06/13 13:04:35;;;;;;;4.40;2.20;;;26.20;97.10;;;;;;5101215;28;20447;-66
2023/06/13 13:07:01;;;;;;;4.35;2.00;;;26.30;97.10;;;;;;5093958;28;20044;-66
2023/06/13 13:09:28;;;;;;;5.75;2.10;;;26.40;97.10;;;;;;5098205;28;20045;-66
2023/06/13 13:11:55;;;;;;;4.90;2.38;;;26.80;97.20;;;;;;5097874;28;20480;-67
2023/06/13 13:14:28;;;;;;;7.00;2.53;;;26.30;97.20;;;;;;5088684;28;20044;-66
2023/06/13 13:16:55;;;;;;;3.85;2.30;;;26.20;97.10;;;;;;5094326;28;20046;-67
2023/06/13 13:19:21;;;;;;;3.83;2.08;;;26.30;96.70;;;;;;5099099;28;20047;-67
2023/06/13 13:21:47;;;;;;;4.53;2.13;;;26.30;97.00;;;;;;5098611;28;20036;-66